sensor_id;sensor_type;location;lat;lon;timestamp;temperature;humidity
13835;DHT22;6988;52.614;13.500;2024-03-08T00:02:46;0.70;99.90
13835;DHT22;6988;52.614;13.500;2024-03-08T00:07:41;0.70;99.90
13835;DHT22;6988;52.614;13.500;2024-03-08T00:12:34;0.60;99.90
13835;DHT22;6988;52.614;13.500;2024-03-08T00:17:26;0.60;99.90
13835;DHT22;6988;52.614;13.500;2024-03-08T00:22:19;0.60;99.90
13835;DHT22;6988;52.614;13.500;2024-03-08T00:27:12;0.50;99.90
13835;DHT22;6988;52.614;13.500;2024-03-08T00:32:06;0.50;99.90
13835;DHT22;6988;52.614;13.500;2024-03-08T00:36:59;0.40;99.90
13835;DHT22;6988;52.614;13.500;2024-03-08T00:41:52;0.40;99.90
13835;DHT22;6988;52.614;13.500;2024-03-08T00:46:44;0.40;99.90
13835;DHT22;6988;52.614;13.500;2024-03-08T00:51:36;0.30;99.90
13835;DHT22;6988;52.614;13.500;2024-03-08T00:56:28;0.30;99.90
13835;DHT22;6988;52.614;13.500;2024-03-08T01:01:21;0.30;99.90
13835;DHT22;6988;52.614;13.500;2024-03-08T01:06:15;0.30;99.90
13835;DHT22;6988;52.614;13.500;2024-03-08T01:11:07;0.30;99.90
13835;DHT22;6988;52.614;13.500;2024-03-08T01:15:59;0.20;99.90
13835;DHT22;6988;52.614;13.500;2024-03-08T01:20:52;0.30;99.90
13835;DHT22;6988;52.614;13.500;2024-03-08T01:25:44;0.10;99.90
13835;DHT22;6988;52.614;13.500;2024-03-08T01:30:36;0.10;99.90
13835;DHT22;6988;52.614;13.500;2024-03-08T01:35:29;0.10;99.90
13835;DHT22;6988;52.614;13.500;2024-03-08T01:40:22;0.10;99.90
13835;DHT22;6988;52.614;13.500;2024-03-08T01:45:14;0.00;99.90
13835;DHT22;6988;52.614;13.500;2024-03-08T01:50:07;0.10;99.90
13835;DHT22;6988;52.614;13.500;2024-03-08T01:55:02;0.00;99.90
13835;DHT22;6988;52.614;13.500;2024-03-08T01:59:59;-0.10;99.90
13835;DHT22;6988;52.614;13.500;2024-03-08T02:04:55;-0.10;99.90
13835;DHT22;6988;52.614;13.500;2024-03-08T02:09:49;-0.10;99.90
13835;DHT22;6988;52.614;13.500;2024-03-08T02:14:41;-0.10;99.90
13835;DHT22;6988;52.614;13.500;2024-03-08T02:19:35;-0.20;99.90
13835;DHT22;6988;52.614;13.500;2024-03-08T02:24:29;-0.20;99.90
13835;DHT22;6988;52.614;13.500;2024-03-08T02:29:21;-0.20;99.90
13835;DHT22;6988;52.614;13.500;2024-03-08T02:34:13;-0.30;99.90
13835;DHT22;6988;52.614;13.500;2024-03-08T02:39:05;-0.30;99.90
13835;DHT22;6988;52.614;13.500;2024-03-08T02:43:58;-0.40;99.90
13835;DHT22;6988;52.614;13.500;2024-03-08T02:48:50;-0.40;99.90
13835;DHT22;6988;52.614;13.500;2024-03-08T02:53:42;-0.40;99.90
13835;DHT22;6988;52.614;13.500;2024-03-08T02:58:34;-0.50;99.90
13835;DHT22;6988;52.614;13.500;2024-03-08T03:03:27;-0.50;99.90
13835;DHT22;6988;52.614;13.500;2024-03-08T03:08:20;-0.50;99.90
13835;DHT22;6988;52.614;13.500;2024-03-08T03:13:13;-0.50;99.90
13835;DHT22;6988;52.614;13.500;2024-03-08T03:18:05;-0.60;99.90
13835;DHT22;6988;52.614;13.500;2024-03-08T03:22:59;-0.60;99.90
13835;DHT22;6988;52.614;13.500;2024-03-08T03:27:53;-0.50;99.90
13835;DHT22;6988;52.614;13.500;2024-03-08T03:32:47;-0.60;99.90
13835;DHT22;6988;52.614;13.500;2024-03-08T03:37:40;-0.60;99.90
13835;DHT22;6988;52.614;13.500;2024-03-08T03:42:34;-0.60;99.90
13835;DHT22;6988;52.614;13.500;2024-03-08T03:47:28;-0.70;99.90
13835;DHT22;6988;52.614;13.500;2024-03-08T03:52:20;-0.80;99.90
13835;DHT22;6988;52.614;13.500;2024-03-08T04:02:40;-0.90;99.90
13835;DHT22;6988;52.614;13.500;2024-03-08T04:07:32;-0.90;99.90
13835;DHT22;6988;52.614;13.500;2024-03-08T04:12:24;-0.90;99.90
13835;DHT22;6988;52.614;13.500;2024-03-08T04:17:19;-0.90;99.90
13835;DHT22;6988;52.614;13.500;2024-03-08T04:22:12;-1.00;99.90
13835;DHT22;6988;52.614;13.500;2024-03-08T04:27:05;-1.00;99.90
13835;DHT22;6988;52.614;13.500;2024-03-08T04:31:57;-1.00;99.90
13835;DHT22;6988;52.614;13.500;2024-03-08T04:36:49;-1.00;99.90
13835;DHT22;6988;52.614;13.500;2024-03-08T04:41:43;-1.00;99.90
13835;DHT22;6988;52.614;13.500;2024-03-08T04:46:35;-1.10;99.90
13835;DHT22;6988;52.614;13.500;2024-03-08T04:51:26;-1.10;99.90
13835;DHT22;6988;52.614;13.500;2024-03-08T04:56:20;-1.00;99.90
13835;DHT22;6988;52.614;13.500;2024-03-08T05:01:13;-1.00;99.90
13835;DHT22;6988;52.614;13.500;2024-03-08T05:06:06;-1.10;99.90
13835;DHT22;6988;52.614;13.500;2024-03-08T05:10:58;-1.20;99.90
13835;DHT22;6988;52.614;13.500;2024-03-08T05:15:53;-1.20;99.90
13835;DHT22;6988;52.614;13.500;2024-03-08T05:20:50;-1.30;99.90
13835;DHT22;6988;52.614;13.500;2024-03-08T05:25:42;-1.30;99.90
13835;DHT22;6988;52.614;13.500;2024-03-08T05:30:34;-1.20;99.90
13835;DHT22;6988;52.614;13.500;2024-03-08T05:35:26;-1.30;99.90
13835;DHT22;6988;52.614;13.500;2024-03-08T05:40:19;-1.20;99.90
13835;DHT22;6988;52.614;13.500;2024-03-08T05:45:11;-1.30;99.90
13835;DHT22;6988;52.614;13.500;2024-03-08T05:50:06;-1.30;99.90
13835;DHT22;6988;52.614;13.500;2024-03-08T05:55:01;-1.30;99.90
13835;DHT22;6988;52.614;13.500;2024-03-08T05:59:54;-1.30;99.90
13835;DHT22;6988;52.614;13.500;2024-03-08T06:04:46;-1.20;99.90
13835;DHT22;6988;52.614;13.500;2024-03-08T06:09:38;-1.20;99.90
13835;DHT22;6988;52.614;13.500;2024-03-08T06:14:30;-1.20;99.90
13835;DHT22;6988;52.614;13.500;2024-03-08T06:19:23;-1.20;99.90
13835;DHT22;6988;52.614;13.500;2024-03-08T06:24:15;-1.10;99.90
13835;DHT22;6988;52.614;13.500;2024-03-08T06:29:08;-1.00;99.90
13835;DHT22;6988;52.614;13.500;2024-03-08T06:34:00;-1.00;99.90
13835;DHT22;6988;52.614;13.500;2024-03-08T06:38:53;-0.90;99.90
13835;DHT22;6988;52.614;13.500;2024-03-08T06:43:46;-0.80;99.90
13835;DHT22;6988;52.614;13.500;2024-03-08T06:48:42;-0.70;99.90
13835;DHT22;6988;52.614;13.500;2024-03-08T06:53:34;-0.50;99.90
13835;DHT22;6988;52.614;13.500;2024-03-08T06:58:27;-0.30;99.90
13835;DHT22;6988;52.614;13.500;2024-03-08T07:03:19;0.00;99.90
13835;DHT22;6988;52.614;13.500;2024-03-08T07:08:12;0.30;99.90
13835;DHT22;6988;52.614;13.500;2024-03-08T07:13:06;0.60;99.90
13835;DHT22;6988;52.614;13.500;2024-03-08T07:17:59;0.90;99.90
13835;DHT22;6988;52.614;13.500;2024-03-08T07:22:51;1.10;99.90
13835;DHT22;6988;52.614;13.500;2024-03-08T07:27:43;1.40;99.90
13835;DHT22;6988;52.614;13.500;2024-03-08T07:32:36;1.70;99.90
13835;DHT22;6988;52.614;13.500;2024-03-08T07:37:30;2.10;99.90
13835;DHT22;6988;52.614;13.500;2024-03-08T07:42:23;2.60;99.90
13835;DHT22;6988;52.614;13.500;2024-03-08T07:47:15;3.00;99.90
13835;DHT22;6988;52.614;13.500;2024-03-08T07:52:08;3.40;99.90
13835;DHT22;6988;52.614;13.500;2024-03-08T07:57:07;3.70;99.90
13835;DHT22;6988;52.614;13.500;2024-03-08T08:01:59;4.00;99.90
13835;DHT22;6988;52.614;13.500;2024-03-08T08:06:51;4.20;99.90
13835;DHT22;6988;52.614;13.500;2024-03-08T08:11:43;4.40;99.90
13835;DHT22;6988;52.614;13.500;2024-03-08T08:16:36;4.60;99.90
13835;DHT22;6988;52.614;13.500;2024-03-08T08:21:31;4.90;99.90
13835;DHT22;6988;52.614;13.500;2024-03-08T08:26:23;5.10;99.90
13835;DHT22;6988;52.614;13.500;2024-03-08T08:31:17;5.40;99.90
13835;DHT22;6988;52.614;13.500;2024-03-08T08:36:12;5.70;99.90
13835;DHT22;6988;52.614;13.500;2024-03-08T08:41:04;6.00;97.60
13835;DHT22;6988;52.614;13.500;2024-03-08T08:45:56;6.30;84.20
13835;DHT22;6988;52.614;13.500;2024-03-08T08:50:48;6.40;56.60
13835;DHT22;6988;52.614;13.500;2024-03-08T08:55:42;6.70;41.80
13835;DHT22;6988;52.614;13.500;2024-03-08T09:00:36;6.90;46.70
13835;DHT22;6988;52.614;13.500;2024-03-08T09:05:28;7.10;34.60
13835;DHT22;6988;52.614;13.500;2024-03-08T09:10:22;7.20;3.90
13835;DHT22;6988;52.614;13.500;2024-03-08T09:15:16;7.40;1.00
13835;DHT22;6988;52.614;13.500;2024-03-08T09:20:11;7.30;1.00
13835;DHT22;6988;52.614;13.500;2024-03-08T09:25:05;7.20;1.00
13835;DHT22;6988;52.614;13.500;2024-03-08T09:29:58;7.30;1.00
13835;DHT22;6988;52.614;13.500;2024-03-08T09:34:51;7.50;1.00
13835;DHT22;6988;52.614;13.500;2024-03-08T09:39:43;7.70;1.00
13835;DHT22;6988;52.614;13.500;2024-03-08T09:44:36;7.90;1.00
13835;DHT22;6988;52.614;13.500;2024-03-08T09:49:29;8.00;1.00
13835;DHT22;6988;52.614;13.500;2024-03-08T09:54:23;8.00;1.00
13835;DHT22;6988;52.614;13.500;2024-03-08T09:59:17;8.30;1.00
13835;DHT22;6988;52.614;13.500;2024-03-08T10:04:33;8.30;1.00
13835;DHT22;6988;52.614;13.500;2024-03-08T10:09:26;8.50;1.00
13835;DHT22;6988;52.614;13.500;2024-03-08T10:14:18;8.50;1.00
13835;DHT22;6988;52.614;13.500;2024-03-08T10:19:10;8.60;1.00
13835;DHT22;6988;52.614;13.500;2024-03-08T10:24:07;8.60;1.00
13835;DHT22;6988;52.614;13.500;2024-03-08T10:29:05;8.60;1.00
13835;DHT22;6988;52.614;13.500;2024-03-08T10:33:57;8.40;1.00
13835;DHT22;6988;52.614;13.500;2024-03-08T10:38:51;8.50;1.00
13835;DHT22;6988;52.614;13.500;2024-03-08T10:43:57;8.50;1.00
13835;DHT22;6988;52.614;13.500;2024-03-08T10:49:07;8.80;1.00
13835;DHT22;6988;52.614;13.500;2024-03-08T10:54:04;8.80;1.00
13835;DHT22;6988;52.614;13.500;2024-03-08T10:58:57;8.80;1.00
13835;DHT22;6988;52.614;13.500;2024-03-08T11:03:51;8.90;1.00
13835;DHT22;6988;52.614;13.500;2024-03-08T11:08:44;9.00;1.00
13835;DHT22;6988;52.614;13.500;2024-03-08T11:13:38;8.90;1.00
13835;DHT22;6988;52.614;13.500;2024-03-08T11:18:32;9.20;1.00
13835;DHT22;6988;52.614;13.500;2024-03-08T11:23:26;9.60;1.00
13835;DHT22;6988;52.614;13.500;2024-03-08T11:28:20;9.50;1.00
13835;DHT22;6988;52.614;13.500;2024-03-08T11:33:15;9.60;1.00
13835;DHT22;6988;52.614;13.500;2024-03-08T11:38:09;9.50;1.00
13835;DHT22;6988;52.614;13.500;2024-03-08T11:43:02;9.70;1.00
13835;DHT22;6988;52.614;13.500;2024-03-08T11:47:57;10.00;1.00
13835;DHT22;6988;52.614;13.500;2024-03-08T11:52:51;10.10;1.00
13835;DHT22;6988;52.614;13.500;2024-03-08T11:57:43;10.10;1.00
13835;DHT22;6988;52.614;13.500;2024-03-08T12:02:36;10.20;99.90
13835;DHT22;6988;52.614;13.500;2024-03-08T12:07:29;10.00;99.90
13835;DHT22;6988;52.614;13.500;2024-03-08T12:12:24;9.80;99.90
13835;DHT22;6988;52.614;13.500;2024-03-08T12:17:16;9.80;1.00
13835;DHT22;6988;52.614;13.500;2024-03-08T12:22:10;10.00;1.00
13835;DHT22;6988;52.614;13.500;2024-03-08T12:27:17;9.90;99.90
13835;DHT22;6988;52.614;13.500;2024-03-08T12:32:10;10.20;99.90
13835;DHT22;6988;52.614;13.500;2024-03-08T12:37:04;10.70;99.90
13835;DHT22;6988;52.614;13.500;2024-03-08T12:41:58;10.70;1.00
13835;DHT22;6988;52.614;13.500;2024-03-08T12:46:50;10.80;99.90
13835;DHT22;6988;52.614;13.500;2024-03-08T12:51:44;10.80;1.00
13835;DHT22;6988;52.614;13.500;2024-03-08T12:56:36;10.60;1.00
13835;DHT22;6988;52.614;13.500;2024-03-08T13:01:30;10.40;1.00
13835;DHT22;6988;52.614;13.500;2024-03-08T13:06:23;10.50;1.00
13835;DHT22;6988;52.614;13.500;2024-03-08T13:11:15;10.50;1.00
13835;DHT22;6988;52.614;13.500;2024-03-08T13:16:08;10.70;1.00
13835;DHT22;6988;52.614;13.500;2024-03-08T13:21:01;10.70;99.90
13835;DHT22;6988;52.614;13.500;2024-03-08T13:25:57;10.90;1.00
13835;DHT22;6988;52.614;13.500;2024-03-08T13:30:49;11.00;1.00
13835;DHT22;6988;52.614;13.500;2024-03-08T13:35:41;11.00;99.90
13835;DHT22;6988;52.614;13.500;2024-03-08T13:40:34;11.00;99.90
13835;DHT22;6988;52.614;13.500;2024-03-08T13:45:26;10.90;99.90
13835;DHT22;6988;52.614;13.500;2024-03-08T13:50:17;11.00;14.70
13835;DHT22;6988;52.614;13.500;2024-03-08T13:55:11;10.80;1.00
13835;DHT22;6988;52.614;13.500;2024-03-08T14:00:06;10.80;1.00
13835;DHT22;6988;52.614;13.500;2024-03-08T14:05:04;10.50;99.90
13835;DHT22;6988;52.614;13.500;2024-03-08T14:09:56;10.50;99.90
13835;DHT22;6988;52.614;13.500;2024-03-08T14:14:47;10.50;99.90
13835;DHT22;6988;52.614;13.500;2024-03-08T14:19:40;10.70;99.90
13835;DHT22;6988;52.614;13.500;2024-03-08T14:24:32;10.60;1.00
13835;DHT22;6988;52.614;13.500;2024-03-08T14:29:25;10.50;1.00
13835;DHT22;6988;52.614;13.500;2024-03-08T14:34:19;10.50;37.40
13835;DHT22;6988;52.614;13.500;2024-03-08T14:39:13;10.60;1.00
13835;DHT22;6988;52.614;13.500;2024-03-08T14:44:05;10.70;99.90
13835;DHT22;6988;52.614;13.500;2024-03-08T14:48:57;10.70;99.90
13835;DHT22;6988;52.614;13.500;2024-03-08T14:53:49;10.60;99.90
13835;DHT22;6988;52.614;13.500;2024-03-08T14:58:42;10.60;99.90
13835;DHT22;6988;52.614;13.500;2024-03-08T15:03:35;10.70;89.70
13835;DHT22;6988;52.614;13.500;2024-03-08T15:08:28;10.60;1.00
13835;DHT22;6988;52.614;13.500;2024-03-08T15:13:21;10.60;99.90
13835;DHT22;6988;52.614;13.500;2024-03-08T15:18:14;10.60;99.90
13835;DHT22;6988;52.614;13.500;2024-03-08T15:23:09;10.20;99.90
13835;DHT22;6988;52.614;13.500;2024-03-08T15:28:01;9.90;99.90
13835;DHT22;6988;52.614;13.500;2024-03-08T15:32:54;9.90;99.90
13835;DHT22;6988;52.614;13.500;2024-03-08T15:37:49;9.80;99.90
13835;DHT22;6988;52.614;13.500;2024-03-08T15:42:42;9.40;99.90
13835;DHT22;6988;52.614;13.500;2024-03-08T15:47:34;9.40;1.00
13835;DHT22;6988;52.614;13.500;2024-03-08T15:52:27;9.10;1.00
13835;DHT22;6988;52.614;13.500;2024-03-08T15:57:20;8.90;1.00
13835;DHT22;6988;52.614;13.500;2024-03-08T16:02:12;8.60;1.00
13835;DHT22;6988;52.614;13.500;2024-03-08T16:07:04;8.40;1.00
13835;DHT22;6988;52.614;13.500;2024-03-08T16:11:57;8.20;1.00
13835;DHT22;6988;52.614;13.500;2024-03-08T16:16:50;8.00;1.00
13835;DHT22;6988;52.614;13.500;2024-03-08T16:21:42;7.80;1.00
13835;DHT22;6988;52.614;13.500;2024-03-08T16:26:34;7.70;1.00
13835;DHT22;6988;52.614;13.500;2024-03-08T16:31:26;7.50;1.00
13835;DHT22;6988;52.614;13.500;2024-03-08T16:36:19;7.30;1.00
13835;DHT22;6988;52.614;13.500;2024-03-08T16:41:11;7.10;1.00
13835;DHT22;6988;52.614;13.500;2024-03-08T16:46:03;6.90;1.00
13835;DHT22;6988;52.614;13.500;2024-03-08T16:50:55;6.80;1.00
13835;DHT22;6988;52.614;13.500;2024-03-08T16:55:48;6.50;1.00
13835;DHT22;6988;52.614;13.500;2024-03-08T17:00:41;6.50;1.00
13835;DHT22;6988;52.614;13.500;2024-03-08T17:05:33;6.30;1.00
13835;DHT22;6988;52.614;13.500;2024-03-08T17:10:28;6.10;1.00
13835;DHT22;6988;52.614;13.500;2024-03-08T17:15:22;5.90;1.00
13835;DHT22;6988;52.614;13.500;2024-03-08T17:20:14;5.80;1.00
13835;DHT22;6988;52.614;13.500;2024-03-08T17:25:10;5.60;1.00
13835;DHT22;6988;52.614;13.500;2024-03-08T17:30:06;5.40;1.00
13835;DHT22;6988;52.614;13.500;2024-03-08T17:35:11;5.20;1.00
13835;DHT22;6988;52.614;13.500;2024-03-08T17:40:03;5.10;1.00
13835;DHT22;6988;52.614;13.500;2024-03-08T17:44:59;5.00;1.00
13835;DHT22;6988;52.614;13.500;2024-03-08T17:49:51;4.80;7.60
13835;DHT22;6988;52.614;13.500;2024-03-08T17:54:45;4.70;14.60
13835;DHT22;6988;52.614;13.500;2024-03-08T17:59:37;4.60;22.60
13835;DHT22;6988;52.614;13.500;2024-03-08T18:04:29;4.40;36.40
13835;DHT22;6988;52.614;13.500;2024-03-08T18:09:21;4.30;38.40
13835;DHT22;6988;52.614;13.500;2024-03-08T18:14:15;4.20;54.40
13835;DHT22;6988;52.614;13.500;2024-03-08T18:19:07;4.20;49.60
13835;DHT22;6988;52.614;13.500;2024-03-08T18:24:00;4.10;53.10
13835;DHT22;6988;52.614;13.500;2024-03-08T18:28:52;4.20;51.60
13835;DHT22;6988;52.614;13.500;2024-03-08T18:33:46;4.20;54.90
13835;DHT22;6988;52.614;13.500;2024-03-08T18:38:38;4.00;55.30
13835;DHT22;6988;52.614;13.500;2024-03-08T18:43:30;3.90;56.20
13835;DHT22;6988;52.614;13.500;2024-03-08T18:48:24;3.80;49.80
13835;DHT22;6988;52.614;13.500;2024-03-08T18:53:18;3.80;52.50
13835;DHT22;6988;52.614;13.500;2024-03-08T18:58:10;3.70;48.50
13835;DHT22;6988;52.614;13.500;2024-03-08T19:03:02;3.70;40.30
13835;DHT22;6988;52.614;13.500;2024-03-08T19:07:56;3.70;41.40
13835;DHT22;6988;52.614;13.500;2024-03-08T19:12:50;3.70;42.60
13835;DHT22;6988;52.614;13.500;2024-03-08T19:17:43;3.70;39.30
13835;DHT22;6988;52.614;13.500;2024-03-08T19:22:38;3.90;25.80
13835;DHT22;6988;52.614;13.500;2024-03-08T19:27:30;4.00;21.80
13835;DHT22;6988;52.614;13.500;2024-03-08T19:32:23;4.10;13.30
13835;DHT22;6988;52.614;13.500;2024-03-08T19:37:16;4.10;29.20
13835;DHT22;6988;52.614;13.500;2024-03-08T19:42:10;3.90;27.40
13835;DHT22;6988;52.614;13.500;2024-03-08T19:47:02;3.90;30.80
13835;DHT22;6988;52.614;13.500;2024-03-08T19:51:57;4.00;25.40
13835;DHT22;6988;52.614;13.500;2024-03-08T19:56:50;3.90;34.60
13835;DHT22;6988;52.614;13.500;2024-03-08T20:01:43;3.90;40.30
13835;DHT22;6988;52.614;13.500;2024-03-08T20:06:35;3.70;51.90
13835;DHT22;6988;52.614;13.500;2024-03-08T20:11:31;3.60;52.30
13835;DHT22;6988;52.614;13.500;2024-03-08T20:16:23;3.60;63.80
13835;DHT22;6988;52.614;13.500;2024-03-08T20:21:15;3.50;79.20
13835;DHT22;6988;52.614;13.500;2024-03-08T20:26:07;3.30;92.30
13835;DHT22;6988;52.614;13.500;2024-03-08T20:31:02;3.10;93.90
13835;DHT22;6988;52.614;13.500;2024-03-08T20:35:55;3.10;99.90
13835;DHT22;6988;52.614;13.500;2024-03-08T20:40:47;3.00;99.90
13835;DHT22;6988;52.614;13.500;2024-03-08T20:45:40;2.80;99.90
13835;DHT22;6988;52.614;13.500;2024-03-08T20:50:34;2.70;99.90
13835;DHT22;6988;52.614;13.500;2024-03-08T20:55:27;2.70;99.90
13835;DHT22;6988;52.614;13.500;2024-03-08T21:00:21;2.80;99.90
13835;DHT22;6988;52.614;13.500;2024-03-08T21:05:28;2.80;99.90
13835;DHT22;6988;52.614;13.500;2024-03-08T21:10:21;2.70;99.90
13835;DHT22;6988;52.614;13.500;2024-03-08T21:15:14;2.60;99.90
13835;DHT22;6988;52.614;13.500;2024-03-08T21:20:08;2.50;99.90
13835;DHT22;6988;52.614;13.500;2024-03-08T21:25:00;2.40;99.90
13835;DHT22;6988;52.614;13.500;2024-03-08T21:29:55;2.40;99.90
13835;DHT22;6988;52.614;13.500;2024-03-08T21:34:47;2.30;99.90
13835;DHT22;6988;52.614;13.500;2024-03-08T21:39:39;2.20;99.90
13835;DHT22;6988;52.614;13.500;2024-03-08T21:44:31;2.10;99.90
13835;DHT22;6988;52.614;13.500;2024-03-08T21:49:25;2.10;99.90
13835;DHT22;6988;52.614;13.500;2024-03-08T21:54:17;2.00;99.90
13835;DHT22;6988;52.614;13.500;2024-03-08T21:59:10;2.20;99.90
13835;DHT22;6988;52.614;13.500;2024-03-08T22:04:03;2.10;99.90
13835;DHT22;6988;52.614;13.500;2024-03-08T22:08:56;2.10;99.90
13835;DHT22;6988;52.614;13.500;2024-03-08T22:13:49;2.10;99.90
13835;DHT22;6988;52.614;13.500;2024-03-08T22:18:41;2.10;99.90
13835;DHT22;6988;52.614;13.500;2024-03-08T22:23:35;2.10;99.90
13835;DHT22;6988;52.614;13.500;2024-03-08T22:28:29;2.00;99.90
13835;DHT22;6988;52.614;13.500;2024-03-08T22:33:22;1.90;99.90
13835;DHT22;6988;52.614;13.500;2024-03-08T22:38:15;1.80;99.90
13835;DHT22;6988;52.614;13.500;2024-03-08T22:43:08;1.80;99.90
13835;DHT22;6988;52.614;13.500;2024-03-08T23:04:23;1.70;99.90
13835;DHT22;6988;52.614;13.500;2024-03-08T23:09:15;1.60;99.90
13835;DHT22;6988;52.614;13.500;2024-03-08T23:14:08;1.60;99.90
13835;DHT22;6988;52.614;13.500;2024-03-08T23:19:01;1.50;99.90
13835;DHT22;6988;52.614;13.500;2024-03-08T23:23:55;1.50;99.90
13835;DHT22;6988;52.614;13.500;2024-03-08T23:28:47;1.60;99.90
13835;DHT22;6988;52.614;13.500;2024-03-08T23:33:39;1.50;99.90
13835;DHT22;6988;52.614;13.500;2024-03-08T23:38:32;1.40;99.90
13835;DHT22;6988;52.614;13.500;2024-03-08T23:43:26;1.50;99.90
13835;DHT22;6988;52.614;13.500;2024-03-08T23:48:18;1.50;99.90
13835;DHT22;6988;52.614;13.500;2024-03-08T23:53:10;1.40;99.90
13835;DHT22;6988;52.614;13.500;2024-03-08T23:58:03;1.40;99.90
